Chickasha, OK (73023)

11:34 PM CDT on August 29, 2014 (GMT -0500)
Chickasha Municipal | Change Station
CLOSE
Current Station
Airport
Location: Chickasha,
Elevation: 1152 ft
Nearby Weather Stations

Elev 1152 ft 35.10 °N, 97.97 °W | Updated 19 minutes ago

Clear
Clear
73 °F
Feels Like 73 °F
N
5
Wind Variable Wind from SE

Today
High -- | Low -- °F
--% Chance of Precip.
Yesterday
High -- | Low -- °F
Precip. -- in
7:02 AM 8:02 PM
Waxing Crescent, 19% visible
Pressure 29.93 in
Visibility 10.0 miles
Clouds Clear
Dew Point 70 °F
Humidity 88%
Rainfall 0.07 in
Snow Depth Not available.
UV 0 out of 12
Pollen 7.60 out of 12
Ozone Good
PM2.5 Good
Flu Activity Not available.
METAR KCHK 300415Z AUTO 14004KT 10SM CLR 23/21 A2993 RMK AO2

More Conditions Fewer Conditions

Pressure 29.93 in
Visibility 10.0 miles
Clouds Clear
Dew Point 70 °F
Humidity 88%
Rainfall 0.07 in
Snow Depth Not available.
UV 0 out of 12
Pollen 7.60 out of 12
Ozone Good
PM2.5 Good
Flu Activity Not available.
METAR KCHK 300415Z AUTO 14004KT 10SM CLR 23/21 A2993 RMK AO2

More Conditions Fewer Conditions

10-Day Weather Forecast

Almanac

Astronomy

Aug. 29, 2014 Rise Set
Actual Time 7:02 AM CDT 8:02 PM CDT
Civil Twilight 6:36 AM CDT 8:28 PM CDT
Nautical Twilight 6:05 AM CDT 8:59 PM CDT
Astronomical Twilight 5:33 AM CDT 9:30 PM CDT
Moon 10:42 AM CDT (8/29) 10:12 PM CDT (8/29)
Length of Visible Light 13h 52m
Length of Day
13h 00m
Tomorrow will be 2m 5s shorter.
Waxing Crescent, 19% of the Moon is Illuminated
Aug 30
Waxing Crescent
Sep 2
First Quarter
Sep 8
Full
Sep 15
Last Quarter
Sep 24
New

Today's Extremes

State Highs State Lows

Community

WunderPhotos

Upload Photos

1,748,452 photos uploaded!

Nearby

Air Quality

  Air Quality AQ Index Pollutant
Yesterday Moderate
OZONE
Yesterday Moderate
PM2.5
Current Good
OZONE
Current Good
PM2.5
Friday Moderate
PM2.5
Friday Good
OZONE
Saturday Moderate
OZONE
Saturday Good
PM2.5
Sunday Moderate
OZONE
Sunday Good
PM2.5
Monday Moderate
OZONE
Monday Good
PM2.5
Tuesday Moderate
OZONE
Tuesday Good
PM2.5
Wednesday Moderate
OZONE
Wednesday Good
PM2.5

Snow Depth

Station Depth Elevation
No new snow has been reported.

Earthquake Activity

City Distance Mag. Time & Date
Guthrie, Oklahoma 62 miles 3.2 10:39 AM CDT
2014-08-29
Perry, Oklahoma 84 miles 3.0 4:52 AM CDT
2014-08-29
Perry, Oklahoma 85 miles 3.1 10:01 PM CDT
2014-08-28
Stillwater, Oklahoma 82 miles 3.1 10:44 AM CDT
2014-08-27
Minimum magnitude displayed is 2.5.

Coastal Water Temperatures

Place Temperature
No Stations Reporting

Nearby Weather Stations